Royal Princess — ZCEI3 — position and weather

sailwx.info

Track history (hours):
 
Tides and Currents Weather Stations Pressure Air Temp Water Temp Dewpoint Dewpoint Depression Visibility Wind Speed Wind Dir Waves Ship Positions

Royal Princess

Last reported at 2018-Apr-25 19:00 UTC. Time now 2018-Apr-25 23:30 UTC.
Position N 38°24' W 015°00'.

Length 330 m; draft 8.5 m.

Type: Passenger vessel. MMSI: 310661000.

Wind from 010 at 38 knots

Barometer 1025.3 mb
Air temperature 14.5 ° C
Visibility: greater than 10.8 NM
Dewpoint 10.7 ° C
Water temperature 16.4 ° C

Date/timePositionNaut miles runAvg speedWind from/ knotsBaromVisibWave heightAir tempDewpointWater temp
2018-Apr-25 19:00N 38°24' W 015°00'6616.5 010 / 381025.310.8 14.510.716.4
2018-Apr-25 15:00N 38°24' W 016°24'11816.9 020 / 281027.410.8 14.8 9.416.6
2018-Apr-25 08:00N 38°12' W 018°54'19021.3 360 / 271029.610.8 15.013.217.0
2018-Apr-24 23:04N 37°57' W 022°55'336.8
2018-Apr-24 23:00N 37°54' W 022°54'926.3 350 / 71033.910.8 17.014.418.8
2018-Apr-24 22:39N 37°56' W 023°05'319.3
2018-Apr-24 22:30N 37°55' W 023°09'1019.5
2018-Apr-24 21:59N 37°54' W 023°21'919.5
2018-Apr-24 21:31N 37°53' W 023°33'1019.5
2018-Apr-24 21:00N 37°52' W 023°45'1019.6
2018-Apr-24 20:30N 37°50' W 023°58'1019.1
2018-Apr-24 20:01N 37°49' W 024°10'1019.2
2018-Apr-24 19:30N 37°48' W 024°22'1019.5
2018-Apr-24 19:00N 37°46' W 024°34'13867.3
2018-Apr-24 19:00N 37°42' W 024°18'2347.0 340 / 81030.210.8 18.014.616.0
2018-Apr-24 18:30N 37°45' W 024°47'1019.9
2018-Apr-24 18:00N 37°43' W 024°59'1019.9
2018-Apr-24 17:30N 37°42' W 025°12'1019.6
2018-Apr-24 17:00N 37°41' W 025°24'918.5
2018-Apr-24 16:30N 37°42' W 025°35'4 7.5
2018-Apr-24 16:00N 37°44' W 025°39'0 0.0
2018-Apr-24 15:30N 37°44' W 025°39'0 0.0
2018-Apr-24 15:00N 37°44' W 025°39'0 0.0
2018-Apr-24 14:30N 37°44' W 025°39'0 0.0
2018-Apr-24 13:54N 37°44' W 025°39'0 0.0
2018-Apr-24 13:25N 37°44' W 025°39'0 0.0
2018-Apr-24 12:58N 37°44' W 025°39'0 0.0
2018-Apr-24 12:30N 37°44' W 025°39'0 0.0
2018-Apr-24 12:00N 37°44' W 025°39'0 0.0
2018-Apr-24 11:30N 37°44' W 025°39'0 0.0
2018-Apr-24 11:00N 37°44' W 025°39'0 0.0
2018-Apr-24 10:30N 37°44' W 025°39'0 0.0
2018-Apr-24 10:00N 37°44' W 025°39'0 0.0
2018-Apr-24 09:30N 37°44' W 025°39'0 0.0
2018-Apr-24 08:58N 37°44' W 025°39'0 0.0
2018-Apr-24 08:30N 37°44' W 025°39'0 0.0
2018-Apr-24 08:00N 37°44' W 025°39'0 0.0
2018-Apr-24 07:30N 37°44' W 025°39'0 0.0
2018-Apr-24 07:00N 37°44' W 025°39'1 1.2
2018-Apr-24 06:30N 37°44' W 025°39'3 5.9
2018-Apr-24 06:00N 37°43' W 025°43'611.9
2018-Apr-24 05:31N 37°42' W 025°51'816.1
2018-Apr-24 05:00N 37°41' W 026°01'816.8
2018-Apr-24 04:30N 37°40' W 026°11'816.8
2018-Apr-24 04:00N 37°38' W 026°22'816.7
2018-Apr-24 03:30N 37°37' W 026°32'916.8
2018-Apr-24 03:00N 37°35' W 026°43'2017.0
2018-Apr-24 01:50N 37°32' W 027°07'516.6
2018-Apr-24 01:30N 37°31' W 027°14'816.6
2018-Apr-24 01:01N 37°30' W 027°24'816.6
2018-Apr-24 00:30N 37°28' W 027°35'816.7
2018-Apr-24 00:00N 37°27' W 027°45'816.7
2018-Apr-23 23:30N 37°26' W 027°55'816.7
2018-Apr-23 23:00N 37°24' W 028°06'816.6
2018-Apr-23 22:30N 37°23' W 028°16'816.2
2018-Apr-23 22:00N 37°22' W 028°26'816.5
2018-Apr-23 21:30N 37°20' W 028°36'816.6
2018-Apr-23 21:00N 37°19' W 028°47'916.3
2018-Apr-23 20:29N 37°17' W 028°57'816.1
2018-Apr-23 20:00N 37°16' W 029°07'816.2
2018-Apr-23 19:29N 37°15' W 029°17'816.4
2018-Apr-23 18:58N 37°13' W 029°28'816.3
2018-Apr-23 18:28N 37°12' W 029°38'1816.3
2018-Apr-23 17:24N 37°09' W 029°59'916.3
2018-Apr-23 16:52N 37°08' W 030°10'15317.2
2018-Apr-23 08:00N 36°42' W 033°18'46317.1 190 / 131029.310.8 17.014.421.0
2018-Apr-22 05:00N 35°24' W 042°42'23519.6 190 / 351026.410.8 19.013.821.4
2018-Apr-21 17:00N 34°42' W 047°24'22120.1 190 / 331024.710.8 21.016.021.4
2018-Apr-21 06:00N 34°06' W 051°48'11929.8 200 / 381022.710.8 20.018.422.2
2018-Apr-21 02:00N 32°54' W 053°42'36319.1 190 / 331023.510.8 21.519.122.7
2018-Apr-20 07:00N 32°54' W 060°54'41011.1 200 / 281019.610.8 21.519.122.7
2018-Apr-18 18:00N 30°54' W 068°36'17614.7 250 / 101020.710.8 20.513.622.2
2018-Apr-18 06:00N 29°54' W 071°48'36115.1 260 / 101017.810.8 18.512.222.4
2018-Apr-17 06:00N 27°42' W 078°12'11315.8 280 / 201017.310.8 21.012.424.2
2018-Apr-16 22:51N 26°29' W 079°49'617.6
2018-Apr-16 22:30N 26°24' W 079°52'917.1
2018-Apr-16 22:00N 26°17' W 079°57'816.7
2018-Apr-16 21:30N 26°09' W 080°01'611.5
2018-Apr-16 20:59N 26°06' W 080°07'1 1.2
2018-Apr-16 20:31N 26°06' W 080°07'0 0.0
2018-Apr-16 20:00N 26°06' W 080°07'0 0.0
2018-Apr-16 19:31N 26°06' W 080°07'0 0.0
2018-Apr-16 19:00N 26°06' W 080°07'0 0.0
2018-Apr-16 18:30N 26°06' W 080°07'0 0.0
2018-Apr-16 18:00N 26°06' W 080°07'0 0.0
2018-Apr-16 17:30N 26°06' W 080°07'0 0.0
2018-Apr-16 17:00N 26°06' W 080°07'0 0.0
2018-Apr-16 16:30N 26°06' W 080°07'0 0.0
2018-Apr-16 16:00N 26°06' W 080°07'0 0.0
2018-Apr-16 15:30N 26°06' W 080°07'0 0.0
2018-Apr-16 15:00N 26°06' W 080°07'0 0.0
2018-Apr-16 14:30N 26°06' W 080°07'0 0.0
2018-Apr-16 14:00N 26°06' W 080°07'0 0.0
2018-Apr-16 13:30N 26°06' W 080°07'0 0.0
2018-Apr-16 13:00N 26°06' W 080°07'0 0.0
2018-Apr-16 12:30N 26°06' W 080°07'0 0.0
2018-Apr-16 12:01N 26°06' W 080°07'0 0.0
2018-Apr-16 11:30N 26°06' W 080°07'0 0.0
2018-Apr-16 11:01N 26°06' W 080°07'0 0.0
2018-Apr-16 10:30N 26°06' W 080°07'0 0.0
2018-Apr-16 10:00N 26°06' W 080°07'0 0.5
2018-Apr-16 09:30N 26°06' W 080°07'4 8.9
2018-Apr-16 09:00N 26°06' W 080°02'612.6
2018-Apr-16 08:30N 26°06' W 079°55'815.6
2018-Apr-16 08:00N 26°07' W 079°46'815.7
2018-Apr-16 07:30N 26°08' W 079°38'815.6
2018-Apr-16 07:00N 26°08' W 079°29'815.5
2018-Apr-16 06:30N 26°09' W 079°20'16916.1
2018-Apr-15 20:00N 25°30' W 076°18'   130 / 171018.9 5.4 26.023.126.3
Track history (hours):
 
Tides and Currents Weather Stations Pressure Air Temp Water Temp Dewpoint Dewpoint Depression Visibility Wind Speed Wind Dir Waves Ship Positions

Royal Princess

Last reported at 2018-Apr-25 19:00 UTC. Time now 2018-Apr-25 23:30 UTC.
Position N 38°24' W 015°00'.

Length 330 m; draft 8.5 m.

Type: Passenger vessel. MMSI: 310661000.

Wind from 010 at 38 knots

Barometer 1025.3 mb
Air temperature 14.5 ° C
Visibility: greater than 10.8 NM
Dewpoint 10.7 ° C
Water temperature 16.4 ° C

Date/timePositionNaut miles runAvg speedWind from/ knotsBaromVisibWave heightAir tempDewpointWater temp
2018-Apr-25 19:00N 38°24' W 015°00'6616.5 010 / 381025.310.8 14.510.716.4
2018-Apr-25 15:00N 38°24' W 016°24'11816.9 020 / 281027.410.8 14.8 9.416.6
2018-Apr-25 08:00N 38°12' W 018°54'19021.3 360 / 271029.610.8 15.013.217.0
2018-Apr-24 23:04N 37°57' W 022°55'336.8
2018-Apr-24 23:00N 37°54' W 022°54'926.3 350 / 71033.910.8 17.014.418.8
2018-Apr-24 22:39N 37°56' W 023°05'319.3
2018-Apr-24 22:30N 37°55' W 023°09'1019.5
2018-Apr-24 21:59N 37°54' W 023°21'919.5
2018-Apr-24 21:31N 37°53' W 023°33'1019.5
2018-Apr-24 21:00N 37°52' W 023°45'1019.6
2018-Apr-24 20:30N 37°50' W 023°58'1019.1
2018-Apr-24 20:01N 37°49' W 024°10'1019.2
2018-Apr-24 19:30N 37°48' W 024°22'1019.5
2018-Apr-24 19:00N 37°46' W 024°34'13867.3
2018-Apr-24 19:00N 37°42' W 024°18'2347.0 340 / 81030.210.8 18.014.616.0
2018-Apr-24 18:30N 37°45' W 024°47'1019.9
2018-Apr-24 18:00N 37°43' W 024°59'1019.9
2018-Apr-24 17:30N 37°42' W 025°12'1019.6
2018-Apr-24 17:00N 37°41' W 025°24'918.5
2018-Apr-24 16:30N 37°42' W 025°35'4 7.5
2018-Apr-24 16:00N 37°44' W 025°39'0 0.0
2018-Apr-24 15:30N 37°44' W 025°39'0 0.0
2018-Apr-24 15:00N 37°44' W 025°39'0 0.0
2018-Apr-24 14:30N 37°44' W 025°39'0 0.0
2018-Apr-24 13:54N 37°44' W 025°39'0 0.0
2018-Apr-24 13:25N 37°44' W 025°39'0 0.0
2018-Apr-24 12:58N 37°44' W 025°39'0 0.0
2018-Apr-24 12:30N 37°44' W 025°39'0 0.0
2018-Apr-24 12:00N 37°44' W 025°39'0 0.0
2018-Apr-24 11:30N 37°44' W 025°39'0 0.0
2018-Apr-24 11:00N 37°44' W 025°39'0 0.0
2018-Apr-24 10:30N 37°44' W 025°39'0 0.0
2018-Apr-24 10:00N 37°44' W 025°39'0 0.0
2018-Apr-24 09:30N 37°44' W 025°39'0 0.0
2018-Apr-24 08:58N 37°44' W 025°39'0 0.0
2018-Apr-24 08:30N 37°44' W 025°39'0 0.0
2018-Apr-24 08:00N 37°44' W 025°39'0 0.0
2018-Apr-24 07:30N 37°44' W 025°39'0 0.0
2018-Apr-24 07:00N 37°44' W 025°39'1 1.2
2018-Apr-24 06:30N 37°44' W 025°39'3 5.9
2018-Apr-24 06:00N 37°43' W 025°43'611.9
2018-Apr-24 05:31N 37°42' W 025°51'816.1
2018-Apr-24 05:00N 37°41' W 026°01'816.8
2018-Apr-24 04:30N 37°40' W 026°11'816.8
2018-Apr-24 04:00N 37°38' W 026°22'816.7
2018-Apr-24 03:30N 37°37' W 026°32'916.8
2018-Apr-24 03:00N 37°35' W 026°43'2017.0
2018-Apr-24 01:50N 37°32' W 027°07'516.6
2018-Apr-24 01:30N 37°31' W 027°14'816.6
2018-Apr-24 01:01N 37°30' W 027°24'816.6
2018-Apr-24 00:30N 37°28' W 027°35'816.7
2018-Apr-24 00:00N 37°27' W 027°45'816.7
2018-Apr-23 23:30N 37°26' W 027°55'816.7
2018-Apr-23 23:00N 37°24' W 028°06'816.6
2018-Apr-23 22:30N 37°23' W 028°16'816.2
2018-Apr-23 22:00N 37°22' W 028°26'816.5
2018-Apr-23 21:30N 37°20' W 028°36'816.6
2018-Apr-23 21:00N 37°19' W 028°47'916.3
2018-Apr-23 20:29N 37°17' W 028°57'816.1
2018-Apr-23 20:00N 37°16' W 029°07'816.2
2018-Apr-23 19:29N 37°15' W 029°17'816.4
2018-Apr-23 18:58N 37°13' W 029°28'816.3
2018-Apr-23 18:28N 37°12' W 029°38'1816.3
2018-Apr-23 17:24N 37°09' W 029°59'916.3
2018-Apr-23 16:52N 37°08' W 030°10'15317.2
2018-Apr-23 08:00N 36°42' W 033°18'46317.1 190 / 131029.310.8 17.014.421.0
2018-Apr-22 05:00N 35°24' W 042°42'23519.6 190 / 351026.410.8 19.013.821.4
2018-Apr-21 17:00N 34°42' W 047°24'22120.1 190 / 331024.710.8 21.016.021.4
2018-Apr-21 06:00N 34°06' W 051°48'11929.8 200 / 381022.710.8 20.018.422.2
2018-Apr-21 02:00N 32°54' W 053°42'36319.1 190 / 331023.510.8 21.519.122.7
2018-Apr-20 07:00N 32°54' W 060°54'41011.1 200 / 281019.610.8 21.519.122.7
2018-Apr-18 18:00N 30°54' W 068°36'17614.7 250 / 101020.710.8 20.513.622.2
2018-Apr-18 06:00N 29°54' W 071°48'36115.1 260 / 101017.810.8 18.512.222.4
2018-Apr-17 06:00N 27°42' W 078°12'11315.8 280 / 201017.310.8 21.012.424.2
2018-Apr-16 22:51N 26°29' W 079°49'617.6
2018-Apr-16 22:30N 26°24' W 079°52'917.1
2018-Apr-16 22:00N 26°17' W 079°57'816.7
2018-Apr-16 21:30N 26°09' W 080°01'611.5
2018-Apr-16 20:59N 26°06' W 080°07'1 1.2
2018-Apr-16 20:31N 26°06' W 080°07'0 0.0
2018-Apr-16 20:00N 26°06' W 080°07'0 0.0
2018-Apr-16 19:31N 26°06' W 080°07'0 0.0
2018-Apr-16 19:00N 26°06' W 080°07'0 0.0
2018-Apr-16 18:30N 26°06' W 080°07'0 0.0
2018-Apr-16 18:00N 26°06' W 080°07'0 0.0
2018-Apr-16 17:30N 26°06' W 080°07'0 0.0
2018-Apr-16 17:00N 26°06' W 080°07'0 0.0
2018-Apr-16 16:30N 26°06' W 080°07'0 0.0
2018-Apr-16 16:00N 26°06' W 080°07'0 0.0
2018-Apr-16 15:30N 26°06' W 080°07'0 0.0
2018-Apr-16 15:00N 26°06' W 080°07'0 0.0
2018-Apr-16 14:30N 26°06' W 080°07'0 0.0
2018-Apr-16 14:00N 26°06' W 080°07'0 0.0
2018-Apr-16 13:30N 26°06' W 080°07'0 0.0
2018-Apr-16 13:00N 26°06' W 080°07'0 0.0
2018-Apr-16 12:30N 26°06' W 080°07'0 0.0
2018-Apr-16 12:01N 26°06' W 080°07'0 0.0
2018-Apr-16 11:30N 26°06' W 080°07'0 0.0
2018-Apr-16 11:01N 26°06' W 080°07'0 0.0
2018-Apr-16 10:30N 26°06' W 080°07'0 0.0
2018-Apr-16 10:00N 26°06' W 080°07'0 0.5
2018-Apr-16 09:30N 26°06' W 080°07'4 8.9
2018-Apr-16 09:00N 26°06' W 080°02'612.6
2018-Apr-16 08:30N 26°06' W 079°55'815.6
2018-Apr-16 08:00N 26°07' W 079°46'815.7
2018-Apr-16 07:30N 26°08' W 079°38'815.6
2018-Apr-16 07:00N 26°08' W 079°29'815.5
2018-Apr-16 06:30N 26°09' W 079°20'16916.1
2018-Apr-15 20:00N 25°30' W 076°18'   130 / 171018.9 5.4 26.023.126.3

Dump ship's entire track history